createdAt,value
2019-03-03T00:00:51.400Z,7.80
2019-03-03T00:03:20.760Z,7.97
2019-03-03T00:05:50.083Z,8.30
2019-03-03T00:08:19.398Z,8.83
2019-03-03T00:10:48.592Z,9.07
2019-03-03T00:13:17.870Z,7.77
2019-03-03T00:15:47.030Z,8.23
2019-03-03T00:18:16.335Z,9.03
2019-03-03T00:20:45.640Z,8.57
2019-03-03T00:23:14.907Z,8.20
2019-03-03T00:25:44.229Z,8.90
2019-03-03T00:28:13.513Z,8.93
2019-03-03T00:30:42.940Z,8.70
2019-03-03T00:33:12.220Z,8.53
2019-03-03T00:35:41.458Z,8.70
2019-03-03T00:38:25.207Z,9.07
2019-03-03T00:41:12.372Z,8.23
2019-03-03T00:44:03.480Z,7.73
2019-03-03T00:46:59.811Z,8.43
2019-03-03T00:49:39.799Z,7.60
2019-03-03T00:52:14.277Z,7.80
2019-03-03T00:55:08.534Z,7.73
2019-03-03T00:58:08.871Z,7.57
2019-03-03T01:00:46.303Z,7.23
2019-03-03T01:03:40.356Z,7.33
2019-03-03T01:06:31.320Z,6.73
2019-03-03T01:09:15.552Z,7.37
2019-03-03T01:12:03.822Z,7.40
2019-03-03T01:14:39.756Z,6.97
2019-03-03T01:17:46.275Z,7.47
2019-03-03T01:20:24.020Z,7.50
2019-03-03T01:23:12.162Z,6.60
2019-03-03T01:25:41.504Z,7.77
2019-03-03T01:28:10.817Z,7.87
2019-03-03T01:30:40.164Z,8.17
2019-03-03T01:33:09.405Z,7.60
2019-03-03T01:35:38.809Z,7.67
2019-03-03T01:38:08.055Z,8.00
2019-03-03T01:40:37.319Z,7.30
2019-03-03T01:43:06.634Z,8.30
2019-03-03T01:45:35.900Z,7.33
2019-03-03T01:48:05.168Z,6.83
2019-03-03T01:50:34.427Z,6.93
2019-03-03T01:53:03.615Z,8.23
2019-03-03T01:55:32.882Z,8.60
2019-03-03T01:58:02.126Z,8.80
2019-03-03T02:00:31.463Z,7.40
2019-03-03T02:03:00.725Z,7.90
2019-03-03T02:05:30.066Z,7.70
2019-03-03T02:08:00.142Z,7.50
2019-03-03T02:10:29.421Z,7.23
2019-03-03T02:12:58.613Z,8.23
2019-03-03T02:15:27.973Z,8.33
2019-03-03T02:17:57.301Z,9.70
2019-03-03T02:20:26.622Z,8.90
2019-03-03T02:22:55.783Z,9.53
2019-03-03T02:25:25.060Z,9.13
2019-03-03T02:27:54.291Z,9.40
2019-03-03T02:30:23.548Z,8.43
2019-03-03T02:32:52.869Z,9.20
2019-03-03T02:35:22.311Z,8.83
2019-03-03T02:37:51.620Z,9.23
2019-03-03T02:40:20.816Z,9.50
2019-03-03T02:42:50.056Z,8.90
2019-03-03T02:45:20.337Z,9.60
2019-03-03T02:47:49.675Z,9.50
2019-03-03T02:50:19.001Z,8.77
2019-03-03T02:52:48.231Z,8.80
2019-03-03T02:55:17.545Z,9.03
2019-03-03T02:57:46.799Z,8.80
2019-03-03T03:00:20.892Z,8.87
2019-03-03T03:02:57.988Z,9.17
2019-03-03T03:05:45.615Z,8.87
2019-03-03T03:08:21.785Z,9.10
2019-03-03T03:11:11.444Z,8.83
2019-03-03T03:14:02.789Z,8.30
2019-03-03T03:16:50.621Z,8.43
2019-03-03T03:19:29.004Z,9.90
2019-03-03T03:22:14.327Z,8.57
2019-03-03T03:25:00.815Z,8.90
2019-03-03T03:27:40.955Z,9.53
2019-03-03T03:30:25.695Z,9.00
2019-03-03T03:33:17.752Z,8.60
2019-03-03T03:35:59.214Z,9.00
2019-03-03T03:38:33.299Z,9.00
2019-03-03T03:41:21.505Z,9.50
2019-03-03T03:44:00.199Z,8.67
2019-03-03T03:46:54.424Z,8.57
2019-03-03T03:49:51.855Z,9.63
2019-03-03T03:52:34.381Z,8.77
2019-03-03T03:55:41.471Z,8.90
2019-03-03T03:58:18.213Z,8.57
2019-03-03T04:01:04.075Z,8.77
2019-03-03T04:03:47.637Z,10.10
2019-03-03T04:06:47.930Z,10.23
2019-03-03T04:09:45.498Z,9.20
2019-03-03T04:12:42.834Z,8.80
2019-03-03T04:15:17.284Z,9.77
2019-03-03T04:17:54.788Z,9.67
2019-03-03T04:20:30.526Z,9.37
2019-03-03T04:23:21.842Z,8.47
2019-03-03T04:26:25.336Z,8.97
2019-03-03T04:29:02.848Z,9.17
2019-03-03T04:31:49.749Z,9.70
2019-03-03T04:34:35.173Z,9.40
2019-03-03T04:37:32.443Z,9.40
2019-03-03T04:40:07.243Z,9.43
2019-03-03T04:42:43.778Z,9.23
2019-03-03T04:45:35.107Z,9.10
2019-03-03T04:48:23.308Z,9.37
2019-03-03T04:51:02.071Z,9.37
2019-03-03T04:53:39.430Z,9.80
2019-03-03T04:56:21.551Z,8.97
2019-03-03T04:59:09.366Z,9.17
2019-03-03T05:02:04.611Z,9.13
2019-03-03T05:04:55.920Z,10.13
2019-03-03T05:07:50.267Z,9.23
2019-03-03T05:10:37.311Z,9.97
2019-03-03T05:13:21.883Z,9.73
2019-03-03T05:16:20.731Z,8.63
2019-03-03T05:19:02.903Z,8.87
2019-03-03T05:21:32.077Z,10.13
2019-03-03T05:24:01.272Z,8.90
2019-03-03T05:26:30.510Z,8.40
2019-03-03T05:28:59.831Z,9.50
2019-03-03T05:31:29.467Z,8.90
2019-03-03T05:33:58.875Z,8.60
2019-03-03T05:36:28.203Z,8.40
2019-03-03T05:38:57.378Z,8.53
2019-03-03T05:41:26.531Z,8.10
2019-03-03T05:43:55.863Z,7.97
2019-03-03T05:46:25.091Z,7.00
2019-03-03T05:48:54.341Z,7.47
2019-03-03T05:51:23.624Z,6.63
2019-03-03T05:53:52.880Z,6.23
2019-03-03T05:56:22.124Z,6.20
2019-03-03T05:58:51.365Z,6.47
2019-03-03T06:01:20.643Z,6.50
2019-03-03T06:03:49.974Z,6.73
2019-03-03T06:06:19.319Z,5.90
2019-03-03T06:08:48.631Z,6.20
2019-03-03T06:11:17.905Z,6.37
2019-03-03T06:13:47.226Z,6.07
2019-03-03T06:16:16.549Z,5.27
2019-03-03T06:18:45.852Z,6.27
2019-03-03T06:21:15.206Z,6.03
2019-03-03T06:23:44.452Z,6.20
2019-03-03T06:26:13.783Z,5.93
2019-03-03T06:28:43.029Z,7.03
2019-03-03T06:31:12.280Z,6.40
2019-03-03T06:33:41.535Z,6.77
2019-03-03T06:36:10.808Z,6.73
2019-03-03T06:38:40.054Z,7.43
2019-03-03T06:41:09.386Z,7.23
2019-03-03T06:43:38.746Z,8.53
2019-03-03T06:46:07.948Z,8.03
2019-03-03T06:48:37.243Z,7.53
2019-03-03T06:51:06.435Z,8.07
2019-03-03T06:53:35.602Z,8.17
2019-03-03T06:56:04.804Z,8.10
2019-03-03T06:58:34.102Z,7.70
2019-03-03T07:01:03.382Z,7.13
2019-03-03T07:03:32.752Z,7.83
2019-03-03T07:06:01.985Z,8.43
2019-03-03T07:08:31.239Z,7.50
2019-03-03T07:11:00.394Z,7.27
2019-03-03T07:13:29.715Z,7.03
2019-03-03T07:15:59.109Z,7.23
2019-03-03T07:18:28.453Z,7.13
2019-03-03T07:20:57.618Z,7.50
2019-03-03T07:23:26.799Z,7.67
2019-03-03T07:25:56.019Z,7.53
2019-03-03T07:28:25.271Z,7.23
2019-03-03T07:30:54.514Z,7.50
2019-03-03T07:33:34.364Z,7.27
2019-03-03T07:36:03.605Z,6.90
2019-03-03T07:38:32.855Z,8.07
2019-03-03T07:41:02.103Z,6.67
2019-03-03T07:43:31.443Z,7.63
2019-03-03T07:46:00.667Z,6.80
2019-03-03T07:48:29.932Z,7.37
2019-03-03T07:50:59.166Z,7.40
2019-03-03T07:53:28.435Z,7.37
2019-03-03T07:55:57.655Z,7.13
2019-03-03T07:58:26.931Z,7.17
2019-03-03T08:00:56.152Z,7.40
2019-03-03T08:03:25.403Z,8.43
2019-03-03T08:05:54.642Z,7.40
2019-03-03T08:08:23.903Z,7.10
2019-03-03T08:10:53.135Z,7.87
2019-03-03T08:13:22.294Z,7.33
2019-03-03T08:15:51.619Z,7.70
2019-03-03T08:18:20.799Z,7.77
2019-03-03T08:20:50.103Z,8.07
2019-03-03T08:23:19.371Z,7.27
2019-03-03T08:25:48.719Z,6.97
2019-03-03T08:28:17.879Z,7.00
2019-03-03T08:30:47.225Z,6.40
2019-03-03T08:33:16.468Z,5.93
2019-03-03T08:35:45.658Z,6.23
2019-03-03T08:38:14.975Z,5.97
2019-03-03T08:40:44.159Z,6.23
2019-03-03T08:43:23.911Z,7.13
2019-03-03T08:46:10.955Z,7.00
2019-03-03T08:48:58.067Z,7.57
2019-03-03T08:52:04.344Z,5.90
2019-03-03T08:54:52.561Z,6.40
2019-03-03T08:57:59.167Z,6.30
2019-03-03T09:00:46.375Z,6.60
2019-03-03T09:03:21.578Z,6.67
2019-03-03T09:06:08.447Z,7.20
2019-03-03T09:08:56.638Z,6.87
2019-03-03T09:11:40.134Z,7.07
2019-03-03T09:14:31.339Z,7.50
2019-03-03T09:17:22.405Z,6.77
2019-03-03T09:20:02.259Z,6.53
2019-03-03T09:22:49.123Z,7.20
2019-03-03T09:25:55.465Z,6.57
2019-03-03T09:28:47.971Z,6.73
2019-03-03T09:31:34.846Z,6.40
2019-03-03T09:34:35.027Z,6.73
2019-03-03T09:37:32.604Z,6.40
2019-03-03T09:40:19.560Z,7.60
2019-03-03T09:43:05.010Z,6.27
2019-03-03T09:45:52.067Z,6.33
2019-03-03T09:48:35.081Z,6.77
2019-03-03T09:51:23.304Z,6.97
2019-03-03T09:54:10.263Z,6.73
2019-03-03T09:57:01.694Z,7.33
2019-03-03T09:59:56.004Z,6.97
2019-03-03T10:02:50.446Z,6.70
2019-03-03T10:05:26.712Z,6.80
2019-03-03T10:08:12.012Z,8.00
2019-03-03T10:10:47.114Z,6.80
2019-03-03T10:13:38.346Z,6.47
2019-03-03T10:16:38.641Z,6.20
2019-03-03T10:19:35.011Z,6.77
2019-03-03T10:22:10.881Z,6.67
2019-03-03T10:24:47.268Z,6.33
2019-03-03T10:27:41.582Z,7.17
2019-03-03T10:30:31.621Z,6.13
2019-03-03T10:33:22.977Z,6.37
2019-03-03T10:36:00.187Z,6.50
2019-03-03T10:38:47.104Z,6.23
2019-03-03T10:41:34.067Z,5.93
2019-03-03T10:44:10.920Z,6.97
2019-03-03T10:47:01.275Z,6.70
2019-03-03T10:49:58.829Z,6.17
2019-03-03T10:52:35.210Z,7.03
2019-03-03T10:55:19.833Z,7.50
2019-03-03T10:58:01.897Z,6.87
2019-03-03T11:00:59.119Z,6.60
2019-03-03T11:03:53.379Z,6.20
2019-03-03T11:06:34.184Z,6.20
2019-03-03T11:09:41.107Z,5.53
2019-03-03T11:12:31.036Z,5.90
2019-03-03T11:15:25.360Z,5.97
2019-03-03T11:18:05.944Z,6.50
2019-03-03T11:21:06.083Z,6.03
2019-03-03T11:23:57.456Z,5.93
2019-03-03T11:26:48.512Z,5.73
2019-03-03T11:29:42.815Z,5.80
2019-03-03T11:32:31.115Z,5.90
2019-03-03T11:35:22.135Z,6.03
2019-03-03T11:38:09.300Z,7.17
2019-03-03T11:40:53.567Z,6.23
2019-03-03T11:43:46.659Z,6.33
2019-03-03T11:46:42.124Z,6.33
2019-03-03T11:49:22.495Z,6.07
2019-03-03T11:52:16.794Z,6.00
2019-03-03T11:54:50.887Z,6.07
2019-03-03T11:57:39.117Z,6.33
2019-03-03T12:00:26.635Z,5.80
2019-03-03T12:03:17.835Z,5.60
2019-03-03T12:06:04.520Z,5.63
2019-03-03T12:08:54.481Z,6.30
2019-03-03T12:11:51.864Z,6.43
2019-03-03T12:14:34.783Z,6.87
2019-03-03T12:17:11.916Z,6.00
2019-03-03T12:20:03.009Z,5.90
2019-03-03T12:22:50.798Z,6.13
2019-03-03T12:25:29.593Z,5.80
2019-03-03T12:28:20.481Z,6.07
2019-03-03T12:31:10.992Z,6.53
2019-03-03T12:34:01.958Z,6.23
2019-03-03T12:36:50.568Z,5.53
2019-03-03T12:39:32.601Z,6.30
2019-03-03T12:42:15.964Z,5.60
2019-03-03T12:44:54.096Z,5.67
2019-03-03T12:47:30.831Z,6.03
2019-03-03T12:50:22.075Z,5.33
2019-03-03T12:53:08.443Z,5.37
2019-03-03T12:55:59.456Z,5.53
2019-03-03T12:58:53.880Z,4.70
2019-03-03T13:01:44.988Z,4.83
2019-03-03T13:04:31.768Z,4.83
2019-03-03T13:07:27.969Z,5.17
2019-03-03T13:10:18.830Z,4.77
2019-03-03T13:13:07.058Z,4.77
2019-03-03T13:15:45.081Z,4.63
2019-03-03T13:18:32.316Z,4.40
2019-03-03T13:21:17.883Z,4.57
2019-03-03T13:24:07.763Z,4.93
2019-03-03T13:27:02.060Z,4.50
2019-03-03T13:29:41.240Z,5.00
2019-03-03T13:32:19.792Z,4.67
2019-03-03T13:35:01.367Z,5.20
2019-03-03T13:37:39.579Z,5.30
2019-03-03T13:40:19.105Z,4.73
2019-03-03T13:42:56.939Z,5.13
2019-03-03T13:45:31.227Z,5.60
2019-03-03T13:48:00.519Z,5.10
2019-03-03T13:50:29.771Z,4.63
2019-03-03T13:52:59.127Z,4.23
2019-03-03T13:55:28.347Z,5.43
2019-03-03T13:57:57.603Z,5.50
2019-03-03T14:00:26.975Z,4.77
2019-03-03T14:02:56.251Z,4.83
2019-03-03T14:05:25.515Z,3.70
2019-03-03T14:07:55.027Z,4.30
2019-03-03T14:10:24.263Z,4.73
2019-03-03T14:12:53.612Z,4.33
2019-03-03T14:15:23.095Z,4.20
2019-03-03T14:17:52.438Z,4.50
2019-03-03T14:20:22.760Z,4.00
2019-03-03T14:22:53.333Z,3.43
2019-03-03T14:25:22.656Z,3.20
2019-03-03T14:27:51.989Z,3.93
2019-03-03T14:30:22.739Z,3.63
2019-03-03T14:32:51.999Z,3.30
2019-03-03T14:35:21.263Z,3.20
2019-03-03T14:37:50.511Z,3.50
2019-03-03T14:40:20.244Z,3.27
2019-03-03T14:42:49.650Z,2.90
2019-03-03T14:45:19.414Z,3.33
2019-03-03T14:47:48.833Z,3.00
2019-03-03T14:50:18.405Z,2.60
2019-03-03T14:52:48.556Z,2.47
2019-03-03T14:55:18.711Z,2.57
2019-03-03T14:57:48.141Z,2.93
2019-03-03T15:00:23.123Z,2.90
2019-03-03T15:02:52.835Z,2.80
2019-03-03T15:05:22.211Z,2.50
2019-03-03T15:07:51.541Z,3.07
2019-03-03T15:10:20.861Z,2.87
2019-03-03T15:12:50.107Z,3.30
2019-03-03T15:15:20.463Z,3.30
2019-03-03T15:17:49.707Z,3.20
2019-03-03T15:20:19.050Z,3.53
2019-03-03T15:22:48.333Z,3.93
2019-03-03T15:25:17.609Z,3.40
2019-03-03T15:27:46.837Z,4.23
2019-03-03T15:30:18.474Z,3.80
2019-03-03T15:32:47.755Z,4.23
2019-03-03T15:35:17.423Z,3.97
2019-03-03T15:37:47.115Z,3.97
2019-03-03T15:40:17.383Z,4.53
2019-03-03T15:42:46.810Z,4.07
2019-03-03T15:45:18.104Z,4.60
2019-03-03T15:47:47.451Z,5.03
2019-03-03T15:50:18.175Z,4.70
2019-03-03T15:52:47.521Z,4.57
2019-03-03T15:55:17.035Z,4.10
2019-03-03T15:57:46.311Z,4.50
2019-03-03T16:00:20.768Z,3.63
2019-03-03T16:02:50.027Z,4.50
2019-03-03T16:05:19.550Z,3.73
2019-03-03T16:07:48.746Z,4.03
2019-03-03T16:10:18.043Z,4.20
2019-03-03T16:12:47.288Z,3.77
2019-03-03T16:15:16.651Z,4.03
2019-03-03T16:17:45.852Z,31.53
2019-03-03T16:20:16.727Z,7.47
2019-03-03T16:22:46.239Z,19.77
2019-03-03T16:25:16.305Z,8.53
2019-03-03T16:27:45.793Z,21.83
2019-03-03T16:30:18.013Z,28.07
2019-03-03T16:32:47.501Z,4.67
2019-03-03T16:35:17.063Z,4.30
2019-03-03T16:37:46.425Z,4.50
2019-03-03T16:40:20.502Z,4.17
2019-03-03T16:42:49.883Z,4.50
2019-03-03T16:45:19.403Z,5.20
2019-03-03T16:47:48.688Z,7.80
2019-03-03T16:50:18.417Z,4.60
2019-03-03T16:52:47.709Z,3.60
2019-03-03T16:55:16.995Z,4.40
2019-03-03T16:57:47.306Z,4.90
2019-03-03T17:00:18.383Z,3.10
2019-03-03T17:02:47.661Z,3.40
2019-03-03T17:05:17.697Z,3.47
2019-03-03T17:07:46.976Z,5.23
2019-03-03T17:10:16.307Z,3.80
2019-03-03T17:12:45.595Z,3.43
2019-03-03T17:15:16.854Z,3.90
2019-03-03T17:17:46.262Z,3.60
2019-03-03T17:20:15.493Z,3.60
2019-03-03T17:22:44.836Z,3.57
2019-03-03T17:25:16.230Z,4.00
2019-03-03T17:27:45.542Z,3.17
2019-03-03T17:30:16.970Z,4.23
2019-03-03T17:32:46.176Z,5.17
2019-03-03T17:35:15.590Z,6.60
2019-03-03T17:37:45.090Z,4.37
2019-03-03T17:40:16.600Z,3.60
2019-03-03T17:42:45.987Z,3.30
2019-03-03T17:45:17.044Z,3.90
2019-03-03T17:47:46.302Z,4.90
2019-03-03T17:50:16.305Z,6.57
2019-03-03T17:52:45.959Z,5.10
2019-03-03T17:55:16.050Z,3.70
2019-03-03T17:57:45.422Z,4.07
2019-03-03T18:00:17.627Z,3.93
2019-03-03T18:02:47.072Z,4.10
2019-03-03T18:05:18.546Z,4.60
2019-03-03T18:07:48.069Z,3.23
2019-03-03T18:10:17.500Z,4.33
2019-03-03T18:12:46.852Z,3.60
2019-03-03T18:15:16.191Z,3.70
2019-03-03T18:17:45.429Z,3.87
2019-03-03T18:20:14.801Z,3.93
2019-03-03T18:22:44.045Z,3.70
2019-03-03T18:25:14.206Z,3.67
2019-03-03T18:27:43.528Z,3.33
2019-03-03T18:30:20.600Z,4.20
2019-03-03T18:32:50.043Z,3.73
2019-03-03T18:35:19.227Z,3.30
2019-03-03T18:37:48.492Z,4.20
2019-03-03T18:40:19.003Z,3.73
2019-03-03T18:42:48.768Z,3.83
2019-03-03T18:45:18.199Z,3.80
2019-03-03T18:47:58.743Z,3.07
2019-03-03T18:50:28.091Z,4.00
2019-03-03T18:52:59.676Z,3.27
2019-03-03T18:55:28.544Z,3.90
2019-03-03T18:57:57.771Z,3.57
2019-03-03T19:00:27.183Z,3.53
2019-03-03T19:02:58.241Z,3.47
2019-03-03T19:05:27.520Z,3.20
2019-03-03T19:07:56.872Z,3.93
2019-03-03T19:10:26.157Z,3.37
2019-03-03T19:12:55.533Z,3.93
2019-03-03T19:15:24.964Z,3.60
2019-03-03T19:17:54.255Z,3.43
2019-03-03T19:20:23.579Z,4.10
2019-03-03T19:22:53.107Z,3.83
2019-03-03T19:25:22.591Z,3.37
2019-03-03T19:27:51.875Z,3.97
2019-03-03T19:30:22.908Z,3.83
2019-03-03T19:32:55.741Z,4.27
2019-03-03T19:35:24.979Z,3.80
2019-03-03T19:37:54.313Z,4.27
2019-03-03T19:40:23.539Z,3.87
2019-03-03T19:42:52.791Z,4.57
2019-03-03T19:45:24.576Z,3.80
2019-03-03T19:47:53.822Z,4.10
2019-03-03T19:50:23.075Z,3.87
2019-03-03T19:52:52.381Z,6.07
2019-03-03T19:55:23.255Z,9.47
2019-03-03T19:57:52.703Z,4.07
2019-03-03T20:00:35.541Z,8.80
2019-03-03T20:03:01.286Z,9.83
2019-03-03T20:05:30.583Z,7.73
2019-03-03T20:07:59.860Z,4.83
2019-03-03T20:10:29.289Z,4.47
2019-03-03T20:12:58.565Z,4.50
2019-03-03T20:15:28.003Z,4.20
2019-03-03T20:17:57.349Z,4.40
2019-03-03T20:20:26.713Z,4.27
2019-03-03T20:22:56.054Z,4.03
2019-03-03T20:25:26.125Z,4.07
2019-03-03T20:27:55.480Z,3.90
2019-03-03T20:30:24.979Z,5.00
2019-03-03T20:32:54.338Z,4.93
2019-03-03T20:35:23.758Z,4.90
2019-03-03T20:37:53.168Z,4.27
2019-03-03T20:40:22.681Z,5.50
2019-03-03T20:42:52.038Z,4.70
2019-03-03T20:45:22.799Z,6.43
2019-03-03T20:47:52.164Z,4.47
2019-03-03T20:50:21.868Z,5.20
2019-03-03T20:52:51.364Z,4.37
2019-03-03T20:55:25.830Z,6.27
2019-03-03T20:57:55.143Z,6.00
2019-03-03T21:00:25.593Z,5.60
2019-03-03T21:02:55.078Z,5.33
2019-03-03T21:05:24.445Z,4.20
2019-03-03T21:07:53.882Z,4.70
2019-03-03T21:10:24.044Z,4.40
2019-03-03T21:12:53.467Z,5.03
2019-03-03T21:15:22.744Z,4.30
2019-03-03T21:17:51.994Z,4.50
2019-03-03T21:20:21.676Z,3.77
2019-03-03T21:22:50.878Z,4.47
2019-03-03T21:25:20.277Z,4.73
2019-03-03T21:27:49.615Z,4.60
2019-03-03T21:30:23.161Z,3.87
2019-03-03T21:32:52.487Z,4.43
2019-03-03T21:35:21.849Z,4.00
2019-03-03T21:37:51.655Z,5.17
2019-03-03T21:40:20.957Z,4.40
2019-03-03T21:42:50.312Z,4.33
2019-03-03T21:45:20.295Z,4.73
2019-03-03T21:47:49.579Z,4.57
2019-03-03T21:50:20.537Z,4.77
2019-03-03T21:52:49.917Z,4.63
2019-03-03T21:55:19.262Z,4.60
2019-03-03T21:57:48.712Z,4.80
2019-03-03T22:00:24.802Z,4.63
2019-03-03T22:02:54.162Z,5.00
2019-03-03T22:05:23.534Z,4.63
2019-03-03T22:07:53.417Z,4.47
2019-03-03T22:10:29.689Z,5.17
2019-03-03T22:13:00.812Z,4.07
2019-03-03T22:15:30.059Z,4.43
2019-03-03T22:17:59.379Z,4.00
2019-03-03T22:20:28.690Z,4.43
2019-03-03T22:22:57.879Z,4.43
2019-03-03T22:25:27.163Z,3.67
2019-03-03T22:27:56.505Z,4.00
2019-03-03T22:30:26.353Z,4.33
2019-03-03T22:32:55.701Z,3.87
2019-03-03T22:35:24.929Z,3.67
2019-03-03T22:37:54.202Z,4.20
2019-03-03T22:40:23.769Z,4.03
2019-03-03T22:42:53.163Z,3.43
2019-03-03T22:45:22.927Z,4.33
2019-03-03T22:47:52.196Z,4.23
2019-03-03T22:50:21.560Z,3.80
2019-03-03T22:52:50.920Z,3.87
2019-03-03T22:55:20.268Z,3.40
2019-03-03T22:57:49.598Z,3.43
2019-03-03T23:00:29.903Z,3.37
2019-03-03T23:02:59.217Z,3.63
2019-03-03T23:05:42.809Z,3.70
2019-03-03T23:08:25.444Z,3.37
2019-03-03T23:11:42.107Z,4.27
2019-03-03T23:14:36.257Z,3.37
2019-03-03T23:17:35.595Z,3.37
2019-03-03T23:20:22.036Z,3.27
2019-03-03T23:23:23.213Z,3.00
2019-03-03T23:25:53.331Z,3.43
2019-03-03T23:28:23.847Z,3.00
2019-03-03T23:30:57.207Z,3.20
2019-03-03T23:33:26.573Z,2.90
2019-03-03T23:35:55.838Z,3.00
2019-03-03T23:38:25.219Z,2.80
2019-03-03T23:40:54.474Z,2.80
2019-03-03T23:43:23.779Z,3.10
2019-03-03T23:45:53.111Z,2.83
2019-03-03T23:48:22.378Z,2.87
2019-03-03T23:50:51.537Z,2.77
2019-03-03T23:53:20.760Z,2.73
2019-03-03T23:55:50.083Z,2.83
2019-03-03T23:58:19.342Z,2.80
